sensor_id;sensor_type;location;lat;lon;timestamp;temperature;humidity
44229;DHT22;29904;51.058;5.378;2023-05-01T00:00:02;13.10;99.90
44229;DHT22;29904;51.058;5.378;2023-05-01T00:02:31;13.10;99.90
44229;DHT22;29904;51.058;5.378;2023-05-01T00:04:56;13.00;99.90
44229;DHT22;29904;51.058;5.378;2023-05-01T00:07:22;13.00;99.90
44229;DHT22;29904;51.058;5.378;2023-05-01T00:09:50;13.00;99.90
44229;DHT22;29904;51.058;5.378;2023-05-01T00:12:16;13.00;99.90
44229;DHT22;29904;51.058;5.378;2023-05-01T00:14:42;12.90;99.90
44229;DHT22;29904;51.058;5.378;2023-05-01T00:17:07;13.00;99.90
44229;DHT22;29904;51.058;5.378;2023-05-01T00:19:33;13.00;99.90
44229;DHT22;29904;51.058;5.378;2023-05-01T00:21:59;13.00;99.90
44229;DHT22;29904;51.058;5.378;2023-05-01T00:24:25;13.00;99.90
44229;DHT22;29904;51.058;5.378;2023-05-01T00:26:50;13.00;99.90
44229;DHT22;29904;51.058;5.378;2023-05-01T00:29:16;12.90;99.90
44229;DHT22;29904;51.058;5.378;2023-05-01T00:31:42;12.90;99.90
44229;DHT22;29904;51.058;5.378;2023-05-01T00:34:09;12.90;99.90
44229;DHT22;29904;51.058;5.378;2023-05-01T00:36:36;12.90;99.90
44229;DHT22;29904;51.058;5.378;2023-05-01T00:39:02;12.90;99.90
44229;DHT22;29904;51.058;5.378;2023-05-01T00:41:28;13.00;99.90
44229;DHT22;29904;51.058;5.378;2023-05-01T00:43:54;13.00;99.90
44229;DHT22;29904;51.058;5.378;2023-05-01T00:46:20;13.00;99.90
44229;DHT22;29904;51.058;5.378;2023-05-01T00:48:46;13.00;99.90
44229;DHT22;29904;51.058;5.378;2023-05-01T00:51:12;13.10;99.90
44229;DHT22;29904;51.058;5.378;2023-05-01T00:53:39;13.10;99.90
44229;DHT22;29904;51.058;5.378;2023-05-01T00:56:08;13.10;99.90
44229;DHT22;29904;51.058;5.378;2023-05-01T00:58:35;13.10;99.90
44229;DHT22;29904;51.058;5.378;2023-05-01T01:01:01;13.10;99.90
44229;DHT22;29904;51.058;5.378;2023-05-01T01:03:27;13.00;99.90
44229;DHT22;29904;51.058;5.378;2023-05-01T01:05:57;13.00;99.90
44229;DHT22;29904;51.058;5.378;2023-05-01T01:08:28;12.90;99.90
44229;DHT22;29904;51.058;5.378;2023-05-01T01:11:47;13.00;99.90
44229;DHT22;29904;51.058;5.378;2023-05-01T01:14:08;13.00;99.90
44229;DHT22;29904;51.058;5.378;2023-05-01T01:16:52;13.00;99.90
44229;DHT22;29904;51.058;5.378;2023-05-01T01:21:49;13.00;99.90
44229;DHT22;29904;51.058;5.378;2023-05-01T01:33:21;12.90;99.90
44229;DHT22;29904;51.058;5.378;2023-05-01T01:36:05;12.80;99.90
44229;DHT22;29904;51.058;5.378;2023-05-01T01:38:53;12.80;99.90
44229;DHT22;29904;51.058;5.378;2023-05-01T01:41:29;12.80;99.90
44229;DHT22;29904;51.058;5.378;2023-05-01T01:44:07;12.80;99.90
44229;DHT22;29904;51.058;5.378;2023-05-01T01:46:36;12.80;99.90
44229;DHT22;29904;51.058;5.378;2023-05-01T01:49:08;12.70;99.90
44229;DHT22;29904;51.058;5.378;2023-05-01T01:51:37;12.70;99.90
44229;DHT22;29904;51.058;5.378;2023-05-01T01:54:05;12.60;99.90
44229;DHT22;29904;51.058;5.378;2023-05-01T01:56:32;12.60;99.90
44229;DHT22;29904;51.058;5.378;2023-05-01T01:59:00;12.50;99.90
44229;DHT22;29904;51.058;5.378;2023-05-01T02:01:27;12.50;99.90
44229;DHT22;29904;51.058;5.378;2023-05-01T02:03:54;12.40;99.90
44229;DHT22;29904;51.058;5.378;2023-05-01T02:06:20;12.40;99.90
44229;DHT22;29904;51.058;5.378;2023-05-01T02:08:48;12.40;99.90
44229;DHT22;29904;51.058;5.378;2023-05-01T02:11:17;12.40;99.90
44229;DHT22;29904;51.058;5.378;2023-05-01T02:13:46;12.40;99.90
44229;DHT22;29904;51.058;5.378;2023-05-01T02:16:14;12.30;99.90
44229;DHT22;29904;51.058;5.378;2023-05-01T02:18:41;12.30;99.90
44229;DHT22;29904;51.058;5.378;2023-05-01T02:21:10;12.30;99.90
44229;DHT22;29904;51.058;5.378;2023-05-01T02:23:37;12.30;99.90
44229;DHT22;29904;51.058;5.378;2023-05-01T02:26:04;12.30;99.90
44229;DHT22;29904;51.058;5.378;2023-05-01T02:28:33;12.30;99.90
44229;DHT22;29904;51.058;5.378;2023-05-01T02:30:59;12.40;99.90
44229;DHT22;29904;51.058;5.378;2023-05-01T02:33:25;12.40;99.90
44229;DHT22;29904;51.058;5.378;2023-05-01T02:35:51;12.40;99.90
44229;DHT22;29904;51.058;5.378;2023-05-01T02:38:17;12.40;99.90
44229;DHT22;29904;51.058;5.378;2023-05-01T02:40:45;12.50;99.90
44229;DHT22;29904;51.058;5.378;2023-05-01T02:43:13;12.50;99.90
44229;DHT22;29904;51.058;5.378;2023-05-01T02:45:41;12.60;99.90
44229;DHT22;29904;51.058;5.378;2023-05-01T02:48:10;12.60;99.90
44229;DHT22;29904;51.058;5.378;2023-05-01T02:50:38;12.60;99.90
44229;DHT22;29904;51.058;5.378;2023-05-01T02:53:07;12.70;99.90
44229;DHT22;29904;51.058;5.378;2023-05-01T02:55:34;12.70;99.90
44229;DHT22;29904;51.058;5.378;2023-05-01T02:58:00;12.80;99.90
44229;DHT22;29904;51.058;5.378;2023-05-01T03:00:26;12.80;99.90
44229;DHT22;29904;51.058;5.378;2023-05-01T03:02:52;12.80;99.90
44229;DHT22;29904;51.058;5.378;2023-05-01T03:05:18;12.80;99.90
44229;DHT22;29904;51.058;5.378;2023-05-01T03:07:44;12.80;99.90
44229;DHT22;29904;51.058;5.378;2023-05-01T03:10:10;12.80;99.90
44229;DHT22;29904;51.058;5.378;2023-05-01T03:12:36;12.80;99.90
44229;DHT22;29904;51.058;5.378;2023-05-01T03:15:02;12.90;99.90
44229;DHT22;29904;51.058;5.378;2023-05-01T03:17:28;12.80;99.90
44229;DHT22;29904;51.058;5.378;2023-05-01T03:19:54;12.70;99.90
44229;DHT22;29904;51.058;5.378;2023-05-01T03:22:20;12.70;99.90
44229;DHT22;29904;51.058;5.378;2023-05-01T03:24:46;12.80;99.90
44229;DHT22;29904;51.058;5.378;2023-05-01T03:27:12;12.70;99.90
44229;DHT22;29904;51.058;5.378;2023-05-01T03:29:37;12.60;99.90
44229;DHT22;29904;51.058;5.378;2023-05-01T03:32:04;12.60;99.90
44229;DHT22;29904;51.058;5.378;2023-05-01T03:34:30;12.60;99.90
44229;DHT22;29904;51.058;5.378;2023-05-01T03:36:55;12.60;99.90
44229;DHT22;29904;51.058;5.378;2023-05-01T03:39:21;12.60;99.90
44229;DHT22;29904;51.058;5.378;2023-05-01T03:41:47;12.60;99.90
44229;DHT22;29904;51.058;5.378;2023-05-01T03:44:13;12.70;99.90
44229;DHT22;29904;51.058;5.378;2023-05-01T03:46:39;12.70;99.90
44229;DHT22;29904;51.058;5.378;2023-05-01T03:49:05;12.70;99.90
44229;DHT22;29904;51.058;5.378;2023-05-01T03:51:31;12.70;99.90
44229;DHT22;29904;51.058;5.378;2023-05-01T03:53:57;12.70;99.90
44229;DHT22;29904;51.058;5.378;2023-05-01T03:56:26;12.80;99.90
44229;DHT22;29904;51.058;5.378;2023-05-01T03:58:52;12.70;99.90
44229;DHT22;29904;51.058;5.378;2023-05-01T04:01:18;12.70;99.90
44229;DHT22;29904;51.058;5.378;2023-05-01T04:03:44;12.70;99.90
44229;DHT22;29904;51.058;5.378;2023-05-01T04:06:10;12.60;99.90
44229;DHT22;29904;51.058;5.378;2023-05-01T04:08:37;12.50;99.90
44229;DHT22;29904;51.058;5.378;2023-05-01T04:11:03;12.50;99.90
44229;DHT22;29904;51.058;5.378;2023-05-01T04:13:28;12.40;99.90
44229;DHT22;29904;51.058;5.378;2023-05-01T04:15:54;12.40;99.90
44229;DHT22;29904;51.058;5.378;2023-05-01T04:18:22;12.40;99.90
44229;DHT22;29904;51.058;5.378;2023-05-01T04:20:47;12.40;99.90
44229;DHT22;29904;51.058;5.378;2023-05-01T04:23:13;12.50;99.90
44229;DHT22;29904;51.058;5.378;2023-05-01T04:25:39;12.50;99.90
44229;DHT22;29904;51.058;5.378;2023-05-01T04:28:05;12.50;99.90
44229;DHT22;29904;51.058;5.378;2023-05-01T04:30:31;12.50;99.90
44229;DHT22;29904;51.058;5.378;2023-05-01T04:32:56;12.40;99.90
44229;DHT22;29904;51.058;5.378;2023-05-01T04:35:26;12.40;99.90
44229;DHT22;29904;51.058;5.378;2023-05-01T04:37:51;12.50;99.90
44229;DHT22;29904;51.058;5.378;2023-05-01T04:40:18;12.50;99.90
44229;DHT22;29904;51.058;5.378;2023-05-01T04:42:43;12.50;99.90
44229;DHT22;29904;51.058;5.378;2023-05-01T04:45:09;12.50;99.90
44229;DHT22;29904;51.058;5.378;2023-05-01T04:47:35;12.50;99.90
44229;DHT22;29904;51.058;5.378;2023-05-01T04:50:01;12.60;99.90
44229;DHT22;29904;51.058;5.378;2023-05-01T04:52:26;12.60;99.90
44229;DHT22;29904;51.058;5.378;2023-05-01T04:54:52;12.60;99.90
44229;DHT22;29904;51.058;5.378;2023-05-01T04:57:18;12.60;99.90
44229;DHT22;29904;51.058;5.378;2023-05-01T04:59:44;12.50;99.90
44229;DHT22;29904;51.058;5.378;2023-05-01T05:02:10;12.60;99.90
44229;DHT22;29904;51.058;5.378;2023-05-01T05:04:35;12.60;99.90
44229;DHT22;29904;51.058;5.378;2023-05-01T05:07:01;12.60;99.90
44229;DHT22;29904;51.058;5.378;2023-05-01T05:09:27;12.60;99.90
44229;DHT22;29904;51.058;5.378;2023-05-01T05:11:52;12.70;99.90
44229;DHT22;29904;51.058;5.378;2023-05-01T05:14:18;12.80;99.90
44229;DHT22;29904;51.058;5.378;2023-05-01T05:16:44;12.80;99.90
44229;DHT22;29904;51.058;5.378;2023-05-01T05:19:09;12.80;99.90
44229;DHT22;29904;51.058;5.378;2023-05-01T05:21:35;12.80;99.90
44229;DHT22;29904;51.058;5.378;2023-05-01T05:24:01;12.90;99.90
44229;DHT22;29904;51.058;5.378;2023-05-01T05:26:27;12.90;99.90
44229;DHT22;29904;51.058;5.378;2023-05-01T05:28:53;11.80;99.90
44229;DHT22;29904;51.058;5.378;2023-05-01T05:31:18;13.00;99.90
44229;DHT22;29904;51.058;5.378;2023-05-01T05:33:44;13.00;99.90
44229;DHT22;29904;51.058;5.378;2023-05-01T05:36:10;13.10;99.90
44229;DHT22;29904;51.058;5.378;2023-05-01T05:38:36;13.20;99.90
44229;DHT22;29904;51.058;5.378;2023-05-01T05:41:02;13.20;99.90
44229;DHT22;29904;51.058;5.378;2023-05-01T05:43:28;13.20;99.90
44229;DHT22;29904;51.058;5.378;2023-05-01T05:45:57;13.30;99.90
44229;DHT22;29904;51.058;5.378;2023-05-01T05:48:24;13.30;99.90
44229;DHT22;29904;51.058;5.378;2023-05-01T05:50:49;13.30;99.90
44229;DHT22;29904;51.058;5.378;2023-05-01T05:53:20;13.40;99.90
44229;DHT22;29904;51.058;5.378;2023-05-01T05:55:46;13.40;99.90
44229;DHT22;29904;51.058;5.378;2023-05-01T05:58:12;13.40;99.90
44229;DHT22;29904;51.058;5.378;2023-05-01T06:00:47;13.50;99.90
44229;DHT22;29904;51.058;5.378;2023-05-01T06:03:13;13.40;99.90
44229;DHT22;29904;51.058;5.378;2023-05-01T06:05:39;13.40;99.90
44229;DHT22;29904;51.058;5.378;2023-05-01T06:08:05;13.50;99.90
44229;DHT22;29904;51.058;5.378;2023-05-01T06:10:30;13.50;99.90
44229;DHT22;29904;51.058;5.378;2023-05-01T06:12:56;13.60;99.90
44229;DHT22;29904;51.058;5.378;2023-05-01T06:15:22;13.70;99.90
44229;DHT22;29904;51.058;5.378;2023-05-01T06:17:49;13.80;99.90
44229;DHT22;29904;51.058;5.378;2023-05-01T06:20:15;13.90;99.90
44229;DHT22;29904;51.058;5.378;2023-05-01T06:22:41;13.90;99.90
44229;DHT22;29904;51.058;5.378;2023-05-01T06:25:07;14.00;99.90
44229;DHT22;29904;51.058;5.378;2023-05-01T06:27:33;14.20;99.90
44229;DHT22;29904;51.058;5.378;2023-05-01T06:29:59;14.30;99.90
44229;DHT22;29904;51.058;5.378;2023-05-01T06:32:24;14.50;99.90
44229;DHT22;29904;51.058;5.378;2023-05-01T06:34:50;14.60;99.90
44229;DHT22;29904;51.058;5.378;2023-05-01T06:37:16;14.70;99.90
44229;DHT22;29904;51.058;5.378;2023-05-01T06:39:41;14.80;99.90
44229;DHT22;29904;51.058;5.378;2023-05-01T06:42:07;15.00;99.90
44229;DHT22;29904;51.058;5.378;2023-05-01T06:44:35;15.10;99.90
44229;DHT22;29904;51.058;5.378;2023-05-01T06:47:01;15.20;99.90
44229;DHT22;29904;51.058;5.378;2023-05-01T06:49:27;15.30;99.90
44229;DHT22;29904;51.058;5.378;2023-05-01T06:51:53;15.30;99.90
44229;DHT22;29904;51.058;5.378;2023-05-01T06:54:18;15.40;99.90
44229;DHT22;29904;51.058;5.378;2023-05-01T06:56:44;15.50;99.90
44229;DHT22;29904;51.058;5.378;2023-05-01T06:59:10;15.50;99.90
44229;DHT22;29904;51.058;5.378;2023-05-01T07:01:36;15.60;99.90
44229;DHT22;29904;51.058;5.378;2023-05-01T07:04:01;15.60;99.90
44229;DHT22;29904;51.058;5.378;2023-05-01T07:06:28;15.80;99.90
44229;DHT22;29904;51.058;5.378;2023-05-01T07:08:54;15.90;99.90
44229;DHT22;29904;51.058;5.378;2023-05-01T07:11:19;16.00;99.90
44229;DHT22;29904;51.058;5.378;2023-05-01T07:13:45;16.00;99.90
44229;DHT22;29904;51.058;5.378;2023-05-01T07:16:11;16.10;99.90
44229;DHT22;29904;51.058;5.378;2023-05-01T07:18:37;16.20;99.90
44229;DHT22;29904;51.058;5.378;2023-05-01T07:21:03;16.20;99.90
44229;DHT22;29904;51.058;5.378;2023-05-01T07:23:28;16.30;99.90
44229;DHT22;29904;51.058;5.378;2023-05-01T07:25:54;16.40;99.90
44229;DHT22;29904;51.058;5.378;2023-05-01T07:28:20;16.50;99.90
44229;DHT22;29904;51.058;5.378;2023-05-01T07:30:46;16.60;99.90
44229;DHT22;29904;51.058;5.378;2023-05-01T07:33:12;16.80;99.90
44229;DHT22;29904;51.058;5.378;2023-05-01T07:35:37;17.10;99.90
44229;DHT22;29904;51.058;5.378;2023-05-01T07:40:38;17.40;99.90
44229;DHT22;29904;51.058;5.378;2023-05-01T07:43:04;17.40;99.90
44229;DHT22;29904;51.058;5.378;2023-05-01T07:45:29;17.40;99.90
44229;DHT22;29904;51.058;5.378;2023-05-01T07:47:55;17.50;99.90
44229;DHT22;29904;51.058;5.378;2023-05-01T07:50:21;17.40;99.90
44229;DHT22;29904;51.058;5.378;2023-05-01T07:52:47;17.50;99.90
44229;DHT22;29904;51.058;5.378;2023-05-01T07:55:15;17.50;99.90
44229;DHT22;29904;51.058;5.378;2023-05-01T07:57:43;17.60;99.90
44229;DHT22;29904;51.058;5.378;2023-05-01T08:00:09;17.70;99.90
44229;DHT22;29904;51.058;5.378;2023-05-01T08:02:35;17.80;99.90
44229;DHT22;29904;51.058;5.378;2023-05-01T08:05:01;17.90;99.90
44229;DHT22;29904;51.058;5.378;2023-05-01T08:07:28;18.00;99.90
44229;DHT22;29904;51.058;5.378;2023-05-01T08:09:54;18.10;99.90
44229;DHT22;29904;51.058;5.378;2023-05-01T08:12:20;18.00;99.90
44229;DHT22;29904;51.058;5.378;2023-05-01T08:14:46;18.10;99.90
44229;DHT22;29904;51.058;5.378;2023-05-01T08:17:12;18.00;99.90
44229;DHT22;29904;51.058;5.378;2023-05-01T08:19:37;18.00;99.90
44229;DHT22;29904;51.058;5.378;2023-05-01T08:22:03;17.90;99.90
44229;DHT22;29904;51.058;5.378;2023-05-01T08:24:31;18.00;99.90
44229;DHT22;29904;51.058;5.378;2023-05-01T08:26:57;18.00;99.90
44229;DHT22;29904;51.058;5.378;2023-05-01T08:29:24;18.10;99.90
44229;DHT22;29904;51.058;5.378;2023-05-01T08:31:50;18.00;99.90
44229;DHT22;29904;51.058;5.378;2023-05-01T08:34:16;18.10;99.90
44229;DHT22;29904;51.058;5.378;2023-05-01T08:36:42;18.30;99.90
44229;DHT22;29904;51.058;5.378;2023-05-01T08:39:08;18.40;99.90
44229;DHT22;29904;51.058;5.378;2023-05-01T08:41:33;18.50;99.90
44229;DHT22;29904;51.058;5.378;2023-05-01T08:44:00;18.40;99.90
44229;DHT22;29904;51.058;5.378;2023-05-01T08:49:08;18.70;99.90
44229;DHT22;29904;51.058;5.378;2023-05-01T08:51:36;18.80;99.90
44229;DHT22;29904;51.058;5.378;2023-05-01T08:54:04;18.90;99.90
44229;DHT22;29904;51.058;5.378;2023-05-01T08:56:35;19.10;99.90
44229;DHT22;29904;51.058;5.378;2023-05-01T08:59:03;19.20;99.90
44229;DHT22;29904;51.058;5.378;2023-05-01T09:01:30;19.30;99.90
44229;DHT22;29904;51.058;5.378;2023-05-01T09:03:58;19.60;99.90
44229;DHT22;29904;51.058;5.378;2023-05-01T09:06:27;19.60;99.90
44229;DHT22;29904;51.058;5.378;2023-05-01T09:08:54;19.80;99.90
44229;DHT22;29904;51.058;5.378;2023-05-01T09:11:21;20.10;99.90
44229;DHT22;29904;51.058;5.378;2023-05-01T09:13:50;20.30;99.90
44229;DHT22;29904;51.058;5.378;2023-05-01T09:16:18;20.40;99.90
44229;DHT22;29904;51.058;5.378;2023-05-01T09:18:46;20.50;99.90
44229;DHT22;29904;51.058;5.378;2023-05-01T09:21:12;20.60;99.90
44229;DHT22;29904;51.058;5.378;2023-05-01T09:23:38;20.60;99.90
44229;DHT22;29904;51.058;5.378;2023-05-01T09:26:06;20.80;99.90
44229;DHT22;29904;51.058;5.378;2023-05-01T09:28:42;20.90;99.90
44229;DHT22;29904;51.058;5.378;2023-05-01T09:31:26;21.00;99.90
44229;DHT22;29904;51.058;5.378;2023-05-01T09:34:04;20.80;99.90
44229;DHT22;29904;51.058;5.378;2023-05-01T09:36:31;20.70;99.90
44229;DHT22;29904;51.058;5.378;2023-05-01T09:38:58;20.60;99.90
44229;DHT22;29904;51.058;5.378;2023-05-01T09:41:27;20.70;99.90
44229;DHT22;29904;51.058;5.378;2023-05-01T09:43:55;20.90;99.90
44229;DHT22;29904;51.058;5.378;2023-05-01T09:46:21;21.00;99.90
44229;DHT22;29904;51.058;5.378;2023-05-01T09:48:59;21.30;99.90
44229;DHT22;29904;51.058;5.378;2023-05-01T09:53:54;21.10;99.90
44229;DHT22;29904;51.058;5.378;2023-05-01T09:56:20;21.10;99.90
44229;DHT22;29904;51.058;5.378;2023-05-01T09:58:48;21.10;99.90
44229;DHT22;29904;51.058;5.378;2023-05-01T10:01:15;21.30;99.90
44229;DHT22;29904;51.058;5.378;2023-05-01T10:03:42;21.40;99.90
44229;DHT22;29904;51.058;5.378;2023-05-01T10:06:09;21.60;99.90
44229;DHT22;29904;51.058;5.378;2023-05-01T10:08:46;21.70;99.90
44229;DHT22;29904;51.058;5.378;2023-05-01T10:11:12;21.80;99.90
44229;DHT22;29904;51.058;5.378;2023-05-01T10:13:38;22.00;99.90
44229;DHT22;29904;51.058;5.378;2023-05-01T10:16:03;22.10;99.90
44229;DHT22;29904;51.058;5.378;2023-05-01T10:18:36;22.00;99.90
44229;DHT22;29904;51.058;5.378;2023-05-01T10:21:03;21.90;99.90
44229;DHT22;29904;51.058;5.378;2023-05-01T10:23:29;22.10;99.90
44229;DHT22;29904;51.058;5.378;2023-05-01T10:25:57;22.10;99.90
44229;DHT22;29904;51.058;5.378;2023-05-01T10:28:26;22.10;99.90
44229;DHT22;29904;51.058;5.378;2023-05-01T10:30:54;22.10;99.90
44229;DHT22;29904;51.058;5.378;2023-05-01T10:33:23;21.90;99.90
44229;DHT22;29904;51.058;5.378;2023-05-01T10:35:55;22.00;99.90
44229;DHT22;29904;51.058;5.378;2023-05-01T10:38:27;22.00;99.90
44229;DHT22;29904;51.058;5.378;2023-05-01T10:40:57;22.00;99.90
44229;DHT22;29904;51.058;5.378;2023-05-01T10:43:29;22.10;99.90
44229;DHT22;29904;51.058;5.378;2023-05-01T10:51:24;21.90;99.90
44229;DHT22;29904;51.058;5.378;2023-05-01T10:59:04;22.20;99.90
44229;DHT22;29904;51.058;5.378;2023-05-01T11:01:34;22.00;99.90
44229;DHT22;29904;51.058;5.378;2023-05-01T11:04:05;22.00;99.90
44229;DHT22;29904;51.058;5.378;2023-05-01T11:06:35;21.80;99.90
44229;DHT22;29904;51.058;5.378;2023-05-01T11:15:10;21.80;99.90
44229;DHT22;29904;51.058;5.378;2023-05-01T11:20:12;21.30;99.90
44229;DHT22;29904;51.058;5.378;2023-05-01T11:22:58;21.30;99.90
44229;DHT22;29904;51.058;5.378;2023-05-01T11:25:28;21.60;99.90
44229;DHT22;29904;51.058;5.378;2023-05-01T11:27:59;21.30;99.90
44229;DHT22;29904;51.058;5.378;2023-05-01T11:30:34;21.40;99.90
44229;DHT22;29904;51.058;5.378;2023-05-01T11:33:00;21.30;99.90
44229;DHT22;29904;51.058;5.378;2023-05-01T11:35:27;21.40;99.90
44229;DHT22;29904;51.058;5.378;2023-05-01T11:37:53;21.30;99.90
44229;DHT22;29904;51.058;5.378;2023-05-01T11:40:26;21.20;99.90
44229;DHT22;29904;51.058;5.378;2023-05-01T11:43:04;21.30;99.90
44229;DHT22;29904;51.058;5.378;2023-05-01T11:45:31;21.30;99.90
44229;DHT22;29904;51.058;5.378;2023-05-01T11:47:58;21.00;99.90
44229;DHT22;29904;51.058;5.378;2023-05-01T11:50:35;20.70;99.90
44229;DHT22;29904;51.058;5.378;2023-05-01T11:53:12;20.80;99.90
44229;DHT22;29904;51.058;5.378;2023-05-01T11:55:40;20.60;99.90
44229;DHT22;29904;51.058;5.378;2023-05-01T11:58:06;20.30;99.90
44229;DHT22;29904;51.058;5.378;2023-05-01T12:00:33;20.40;99.90
44229;DHT22;29904;51.058;5.378;2023-05-01T12:05:30;20.60;99.90
44229;DHT22;29904;51.058;5.378;2023-05-01T12:10:37;20.40;99.90
44229;DHT22;29904;51.058;5.378;2023-05-01T12:13:05;20.10;99.90
44229;DHT22;29904;51.058;5.378;2023-05-01T12:15:33;20.20;99.90
44229;DHT22;29904;51.058;5.378;2023-05-01T12:18:01;20.40;99.90
44229;DHT22;29904;51.058;5.378;2023-05-01T12:20:53;20.60;99.90
44229;DHT22;29904;51.058;5.378;2023-05-01T12:23:37;20.70;99.90
44229;DHT22;29904;51.058;5.378;2023-05-01T12:26:22;20.60;99.90
44229;DHT22;29904;51.058;5.378;2023-05-01T12:29:03;20.50;99.90
44229;DHT22;29904;51.058;5.378;2023-05-01T12:31:31;20.50;99.90
44229;DHT22;29904;51.058;5.378;2023-05-01T12:34:07;20.50;99.90
44229;DHT22;29904;51.058;5.378;2023-05-01T12:36:34;20.40;99.90
44229;DHT22;29904;51.058;5.378;2023-05-01T12:39:08;20.40;99.90
44229;DHT22;29904;51.058;5.378;2023-05-01T12:41:39;20.50;99.90
44229;DHT22;29904;51.058;5.378;2023-05-01T12:44:23;21.00;99.90
44229;DHT22;29904;51.058;5.378;2023-05-01T12:49:22;21.10;99.90
44229;DHT22;29904;51.058;5.378;2023-05-01T12:51:49;20.70;99.90
44229;DHT22;29904;51.058;5.378;2023-05-01T12:54:23;20.50;99.90
44229;DHT22;29904;51.058;5.378;2023-05-01T12:56:51;20.60;99.90
44229;DHT22;29904;51.058;5.378;2023-05-01T12:59:22;20.40;99.90
44229;DHT22;29904;51.058;5.378;2023-05-01T13:01:59;20.10;99.90
44229;DHT22;29904;51.058;5.378;2023-05-01T13:04:25;19.60;99.90
44229;DHT22;29904;51.058;5.378;2023-05-01T13:06:56;19.60;99.90
44229;DHT22;29904;51.058;5.378;2023-05-01T13:09:23;19.60;99.90
44229;DHT22;29904;51.058;5.378;2023-05-01T13:12:05;19.70;99.90
44229;DHT22;29904;51.058;5.378;2023-05-01T13:14:37;19.70;99.90
44229;DHT22;29904;51.058;5.378;2023-05-01T13:17:10;19.80;99.90
44229;DHT22;29904;51.058;5.378;2023-05-01T13:19:37;19.90;99.90
44229;DHT22;29904;51.058;5.378;2023-05-01T13:22:04;19.80;99.90
44229;DHT22;29904;51.058;5.378;2023-05-01T13:24:45;19.80;99.90
44229;DHT22;29904;51.058;5.378;2023-05-01T13:27:11;19.90;99.90
44229;DHT22;29904;51.058;5.378;2023-05-01T13:29:38;20.00;99.90
44229;DHT22;29904;51.058;5.378;2023-05-01T13:32:09;20.10;99.90
44229;DHT22;29904;51.058;5.378;2023-05-01T13:34:34;19.90;99.90
44229;DHT22;29904;51.058;5.378;2023-05-01T13:37:02;19.90;99.90
44229;DHT22;29904;51.058;5.378;2023-05-01T13:39:30;19.70;99.90
44229;DHT22;29904;51.058;5.378;2023-05-01T13:41:56;19.70;99.90
44229;DHT22;29904;51.058;5.378;2023-05-01T13:44:21;19.70;99.90
44229;DHT22;29904;51.058;5.378;2023-05-01T13:46:49;20.10;99.90
44229;DHT22;29904;51.058;5.378;2023-05-01T13:49:18;20.40;99.90
44229;DHT22;29904;51.058;5.378;2023-05-01T13:51:46;20.30;99.90
44229;DHT22;29904;51.058;5.378;2023-05-01T13:54:13;20.10;99.90
44229;DHT22;29904;51.058;5.378;2023-05-01T13:56:51;20.20;99.90
44229;DHT22;29904;51.058;5.378;2023-05-01T13:59:17;20.40;99.90
44229;DHT22;29904;51.058;5.378;2023-05-01T14:01:43;20.30;99.90
44229;DHT22;29904;51.058;5.378;2023-05-01T14:04:19;20.00;99.90
44229;DHT22;29904;51.058;5.378;2023-05-01T14:06:47;20.00;99.90
44229;DHT22;29904;51.058;5.378;2023-05-01T14:09:16;20.20;99.90
44229;DHT22;29904;51.058;5.378;2023-05-01T14:11:46;20.50;99.90
44229;DHT22;29904;51.058;5.378;2023-05-01T14:14:16;20.80;99.90
44229;DHT22;29904;51.058;5.378;2023-05-01T14:16:46;20.70;99.90
44229;DHT22;29904;51.058;5.378;2023-05-01T14:19:16;20.60;99.90
44229;DHT22;29904;51.058;5.378;2023-05-01T14:21:42;20.70;99.90
44229;DHT22;29904;51.058;5.378;2023-05-01T14:24:10;20.60;99.90
44229;DHT22;29904;51.058;5.378;2023-05-01T14:26:41;20.60;99.90
44229;DHT22;29904;51.058;5.378;2023-05-01T14:29:21;20.90;99.90
44229;DHT22;29904;51.058;5.378;2023-05-01T14:31:48;21.10;99.90
44229;DHT22;29904;51.058;5.378;2023-05-01T14:34:17;21.00;99.90
44229;DHT22;29904;51.058;5.378;2023-05-01T14:36:44;20.80;99.90
44229;DHT22;29904;51.058;5.378;2023-05-01T14:39:09;20.80;99.90
44229;DHT22;29904;51.058;5.378;2023-05-01T14:41:41;20.90;99.90
44229;DHT22;29904;51.058;5.378;2023-05-01T14:44:17;20.70;99.90
44229;DHT22;29904;51.058;5.378;2023-05-01T14:46:48;20.40;99.90
44229;DHT22;29904;51.058;5.378;2023-05-01T14:49:20;19.90;99.90
44229;DHT22;29904;51.058;5.378;2023-05-01T14:51:49;19.80;99.90
44229;DHT22;29904;51.058;5.378;2023-05-01T14:54:16;19.70;99.90
44229;DHT22;29904;51.058;5.378;2023-05-01T14:56:43;19.50;99.90
44229;DHT22;29904;51.058;5.378;2023-05-01T14:59:11;19.40;99.90
44229;DHT22;29904;51.058;5.378;2023-05-01T15:01:37;19.30;99.90
44229;DHT22;29904;51.058;5.378;2023-05-01T15:04:03;19.20;99.90
44229;DHT22;29904;51.058;5.378;2023-05-01T15:06:34;19.10;99.90
44229;DHT22;29904;51.058;5.378;2023-05-01T15:08:59;19.00;99.90
44229;DHT22;29904;51.058;5.378;2023-05-01T15:11:25;18.90;99.90
44229;DHT22;29904;51.058;5.378;2023-05-01T15:13:51;18.80;99.90
44229;DHT22;29904;51.058;5.378;2023-05-01T15:16:17;18.80;99.90
44229;DHT22;29904;51.058;5.378;2023-05-01T15:18:43;18.70;99.90
44229;DHT22;29904;51.058;5.378;2023-05-01T15:21:09;18.60;99.90
44229;DHT22;29904;51.058;5.378;2023-05-01T15:23:35;18.60;99.90
44229;DHT22;29904;51.058;5.378;2023-05-01T15:26:01;18.50;99.90
44229;DHT22;29904;51.058;5.378;2023-05-01T15:28:28;18.50;99.90
44229;DHT22;29904;51.058;5.378;2023-05-01T15:30:54;18.60;99.90
44229;DHT22;29904;51.058;5.378;2023-05-01T15:33:20;18.50;99.90
44229;DHT22;29904;51.058;5.378;2023-05-01T15:35:46;18.60;99.90
44229;DHT22;29904;51.058;5.378;2023-05-01T15:38:13;18.70;99.90
44229;DHT22;29904;51.058;5.378;2023-05-01T15:40:42;18.90;99.90
44229;DHT22;29904;51.058;5.378;2023-05-01T15:43:07;19.10;99.90
44229;DHT22;29904;51.058;5.378;2023-05-01T15:45:35;19.20;99.90
44229;DHT22;29904;51.058;5.378;2023-05-01T15:48:06;19.10;99.90
44229;DHT22;29904;51.058;5.378;2023-05-01T15:50:32;19.30;99.90
44229;DHT22;29904;51.058;5.378;2023-05-01T15:53:00;19.60;99.90
44229;DHT22;29904;51.058;5.378;2023-05-01T15:55:28;19.60;99.90
44229;DHT22;29904;51.058;5.378;2023-05-01T15:57:54;19.70;99.90
44229;DHT22;29904;51.058;5.378;2023-05-01T16:00:19;19.60;99.90
44229;DHT22;29904;51.058;5.378;2023-05-01T16:02:46;19.60;99.90
44229;DHT22;29904;51.058;5.378;2023-05-01T16:05:15;19.30;99.90
44229;DHT22;29904;51.058;5.378;2023-05-01T16:07:43;19.10;99.90
44229;DHT22;29904;51.058;5.378;2023-05-01T16:10:09;18.80;99.90
44229;DHT22;29904;51.058;5.378;2023-05-01T16:12:36;18.70;99.90
44229;DHT22;29904;51.058;5.378;2023-05-01T16:15:03;18.50;99.90
44229;DHT22;29904;51.058;5.378;2023-05-01T16:17:39;18.20;99.90
44229;DHT22;29904;51.058;5.378;2023-05-01T16:20:11;18.00;99.90